Time;durP1;ratioP1;P1;durP2;ratioP2;P2;SDS_P1;SDS_P2;PMS_P1;PMS_P2;Temp;Humidity;BMP_temperature;BMP_pressure;BME280_temperature;BME280_humidity;BME280_pressure;Samples;Min_cycle;Max_cycle;Signal;HPM_P1;HPM_P2
2023/01/11 00:01:13;;;;;;;0.73;0.47;;;3.80;99.90;;;;;;10489586;28;20048;-82
2023/01/11 00:06:14;;;;;;;0.10;0.10;;;3.90;99.90;;;;;;10502757;22;20060;-82
2023/01/11 00:11:15;;;;;;;0.60;0.60;;;3.90;99.90;;;;;;10489247;28;20047;-80
2023/01/11 00:16:16;;;;;;;1.13;1.03;;;4.00;99.90;;;;;;10488579;28;20032;-83
2023/01/11 00:21:16;;;;;;;0.30;0.30;;;4.00;99.90;;;;;;10489625;28;20036;-81
2023/01/11 00:26:17;;;;;;;0.63;0.63;;;4.00;99.90;;;;;;10489528;28;20070;-83
2023/01/11 00:31:17;;;;;;;1.40;1.30;;;4.10;99.90;;;;;;10487423;28;20043;-81
2023/01/11 00:36:18;;;;;;;1.60;1.50;;;4.10;99.90;;;;;;10486957;28;20054;-84
2023/01/11 00:51:59;;;;;;;0.10;0.10;;;4.00;99.90;;;;;;10488564;28;20044;-81
2023/01/11 00:57:00;;;;;;;0.53;0.53;;;4.00;99.90;;;;;;10488462;28;20040;-81
2023/01/11 01:02:01;;;;;;;0.60;0.60;;;4.00;99.90;;;;;;10487356;28;20063;-84
2023/01/11 01:07:01;;;;;;;1.33;1.23;;;3.90;99.90;;;;;;10486747;28;20044;-82
2023/01/11 01:12:02;;;;;;;0.57;0.37;;;4.00;99.90;;;;;;10487168;28;20032;-83
2023/01/11 01:17:06;;;;;;;0.80;0.80;;;3.90;99.90;;;;;;10480871;28;20041;-81
2023/01/11 01:22:06;;;;;;;0.00;0.00;;;3.90;99.90;;;;;;10469801;28;20119;-80
2023/01/11 01:27:07;;;;;;;0.07;0.07;;;3.90;99.90;;;;;;10486659;28;20080;-81
2023/01/11 01:32:08;;;;;;;1.23;1.07;;;3.90;99.90;;;;;;10485911;28;20109;-81
2023/01/11 01:37:09;;;;;;;0.00;0.00;;;3.90;99.90;;;;;;10467501;28;20040;-81
2023/01/11 01:42:15;;;;;;;0.37;0.37;;;3.90;99.90;;;;;;10484853;28;20064;-84
2023/01/11 01:47:16;;;;;;;0.90;0.90;;;3.90;99.90;;;;;;10484378;28;20036;-81
2023/01/11 01:52:17;;;;;;;0.00;0.00;;;3.80;99.90;;;;;;10466207;28;20040;-82
2023/01/11 01:57:21;;;;;;;0.27;0.27;;;3.80;99.90;;;;;;10484919;28;20066;-81
2023/01/11 02:02:23;;;;;;;3.17;2.37;;;3.80;99.90;;;;;;10483832;28;20039;-84
2023/01/11 02:07:33;;;;;;;0.33;0.33;;;3.90;99.90;;;;;;10483602;28;20653;-81
2023/01/11 02:12:41;;;;;;;0.50;0.50;;;3.90;99.90;;;;;;10484934;28;20040;-81
2023/01/11 02:17:42;;;;;;;0.00;0.00;;;3.90;99.90;;;;;;10483698;28;20123;-82
2023/01/11 02:23:19;;;;;;;0.90;0.90;;;3.90;99.90;;;;;;10483609;28;20039;-81
2023/01/11 02:28:30;;;;;;;0.67;0.67;;;3.90;99.90;;;;;;10465641;28;20036;-83
2023/01/11 02:33:39;;;;;;;2.87;2.43;;;3.90;99.90;;;;;;10482499;28;20029;-81
2023/01/11 02:38:49;;;;;;;0.00;0.00;;;3.90;99.90;;;;;;10483054;28;20141;-81
2023/01/11 02:49:32;;;;;;;5.57;2.57;;;3.90;99.90;;;;;;10480429;28;20044;-84
2023/01/11 02:54:33;;;;;;;0.73;0.73;;;3.90;99.90;;;;;;10483413;28;20032;-81
2023/01/11 02:59:35;;;;;;;0.30;0.30;;;3.80;99.90;;;;;;10482065;28;20036;-80
2023/01/11 03:04:36;;;;;;;2.73;1.97;;;3.80;99.90;;;;;;10482362;28;20101;-80
2023/01/11 03:10:09;;;;;;;0.10;0.10;;;3.80;99.90;;;;;;10482351;28;20058;-81
2023/01/11 03:15:28;;;;;;;0.00;0.00;;;3.80;99.90;;;;;;10470662;28;20063;-81
2023/01/11 03:20:40;;;;;;;8.00;1.87;;;3.80;99.90;;;;;;10482747;28;20464;-80
2023/01/11 03:26:02;;;;;;;0.10;0.10;;;3.80;99.90;;;;;;10482591;28;20590;-83
2023/01/11 03:31:11;;;;;;;0.20;0.20;;;3.80;99.90;;;;;;10482514;28;20397;-83
2023/01/11 03:36:34;;;;;;;0.83;0.83;;;3.80;99.90;;;;;;10481810;28;20060;-81
2023/01/11 03:41:39;;;;;;;0.03;0.03;;;3.80;99.90;;;;;;10481852;28;20036;-84
2023/01/11 03:46:45;;;;;;;0.87;0.87;;;3.70;99.90;;;;;;10481916;28;20132;-83
2023/01/11 03:51:47;;;;;;;1.80;1.27;;;3.70;99.90;;;;;;10463763;28;20542;-81
2023/01/11 03:56:55;;;;;;;1.13;1.13;;;3.60;99.90;;;;;;10481781;28;20614;-80
2023/01/11 04:01:56;;;;;;;1.50;1.40;;;3.70;99.90;;;;;;10480752;28;20483;-82
2023/01/11 04:06:57;;;;;;;3.43;3.10;;;3.60;99.90;;;;;;10480270;28;20110;-84
2023/01/11 04:11:57;;;;;;;14.57;5.17;;;3.60;99.90;;;;;;10482964;28;20025;-82
2023/01/11 04:16:58;;;;;;;0.73;0.73;;;3.60;99.90;;;;;;10468460;28;20044;-81
2023/01/11 04:21:58;;;;;;;1.07;1.07;;;3.60;99.90;;;;;;10483770;28;20044;-82
2023/01/11 04:27:00;;;;;;;4.03;1.70;;;3.50;99.90;;;;;;10491469;28;20025;-84
2023/01/11 04:32:02;;;;;;;6.57;3.63;;;3.60;99.90;;;;;;10477549;28;20668;-83
2023/01/11 04:37:03;;;;;;;2.90;1.33;;;3.60;99.90;;;;;;10481939;28;20047;-84
2023/01/11 04:42:19;;;;;;;0.73;0.73;;;3.60;99.90;;;;;;10485863;28;20043;-82
2023/01/11 04:47:21;;;;;;;0.77;0.77;;;3.60;99.90;;;;;;10468082;28;20062;-82
2023/01/11 04:52:22;;;;;;;0.47;0.47;;;3.60;99.90;;;;;;10486844;28;20024;-83
2023/01/11 04:57:24;;;;;;;3.97;1.90;;;3.60;99.90;;;;;;10486634;28;20051;-81
2023/01/11 05:02:24;;;;;;;0.30;0.30;;;3.60;99.90;;;;;;10482608;28;20037;-81
2023/01/11 05:07:25;;;;;;;1.80;1.77;;;3.60;99.90;;;;;;10443513;28;20049;-82
2023/01/11 05:12:25;;;;;;;7.77;5.07;;;3.50;99.90;;;;;;10444894;28;20492;-84
2023/01/11 05:17:26;;;;;;;4.63;2.27;;;3.40;99.90;;;;;;10443822;28;20021;-82
2023/01/11 05:22:26;;;;;;;1.33;1.23;;;3.40;99.90;;;;;;10442089;28;20032;-83
2023/01/11 05:27:27;;;;;;;3.93;1.13;;;3.40;99.90;;;;;;10439698;28;20616;-82
2023/01/11 05:32:28;;;;;;;0.73;0.40;;;3.30;99.90;;;;;;10442444;28;20029;-81
2023/01/11 05:37:28;;;;;;;0.37;0.37;;;3.20;99.90;;;;;;10444651;28;20029;-83
2023/01/11 05:42:29;;;;;;;0.17;0.17;;;3.10;99.90;;;;;;10444859;28;20062;-81
2023/01/11 05:47:30;;;;;;;1.63;1.60;;;3.10;99.90;;;;;;10444231;28;20025;-80
2023/01/11 05:52:30;;;;;;;0.00;0.00;;;3.00;99.90;;;;;;10444573;28;20047;-82
2023/01/11 05:57:31;;;;;;;0.63;0.63;;;2.90;99.90;;;;;;10442882;28;20116;-81
2023/01/11 06:02:32;;;;;;;0.80;0.80;;;2.90;99.90;;;;;;10444216;28;20039;-81
2023/01/11 06:07:33;;;;;;;2.20;2.00;;;2.80;99.90;;;;;;10482146;28;20126;-81
2023/01/11 06:12:33;;;;;;;1.43;1.33;;;2.70;99.90;;;;;;10484399;28;20112;-81
2023/01/11 06:17:34;;;;;;;8.50;3.60;;;2.70;99.90;;;;;;10484864;28;20763;-81
2023/01/11 06:22:34;;;;;;;1.10;1.03;;;2.70;99.90;;;;;;10484700;28;20025;-81
2023/01/11 06:27:35;;;;;;;0.97;0.97;;;2.60;99.90;;;;;;10484996;28;20036;-81
2023/01/11 06:32:35;;;;;;;1.70;1.70;;;2.60;99.90;;;;;;10483215;28;20073;-85
2023/01/11 06:37:36;;;;;;;0.10;0.10;;;2.60;99.90;;;;;;10484162;28;20032;-85
2023/01/11 06:42:36;;;;;;;1.70;1.57;;;2.70;99.90;;;;;;10483776;28;20078;-80
2023/01/11 06:47:37;;;;;;;0.10;0.10;;;2.80;99.90;;;;;;10484121;28;20716;-81
2023/01/11 06:52:38;;;;;;;5.53;1.87;;;2.90;99.90;;;;;;10483345;28;20036;-81
2023/01/11 06:57:38;;;;;;;5.57;3.53;;;2.90;99.90;;;;;;10483731;28;20040;-81
2023/01/11 07:02:39;;;;;;;4.87;4.43;;;3.00;99.90;;;;;;10483120;28;20094;-83
2023/01/11 07:07:40;;;;;;;2.87;2.77;;;3.20;99.90;;;;;;10483960;28;20056;-81
2023/01/11 07:12:41;;;;;;;0.93;0.43;;;3.30;99.90;;;;;;10483576;28;20108;-81
2023/01/11 07:17:41;;;;;;;1.17;1.17;;;3.40;99.90;;;;;;10482939;28;20024;-81
2023/01/11 07:22:42;;;;;;;3.03;2.80;;;3.40;99.90;;;;;;10482995;28;20036;-81
2023/01/11 07:27:43;;;;;;;4.47;4.07;;;3.50;99.90;;;;;;10482956;28;20036;-81
2023/01/11 07:32:43;;;;;;;2.10;2.00;;;3.50;99.90;;;;;;10476670;28;20029;-85
2023/01/11 07:37:44;;;;;;;11.33;5.07;;;3.60;99.90;;;;;;10476724;28;20028;-85
2023/01/11 07:48:09;;;;;;;8.40;5.70;;;3.60;99.90;;;;;;10490991;28;20063;-86
2023/01/11 07:53:09;;;;;;;3.23;3.03;;;3.60;99.90;;;;;;10490614;28;20036;-81
2023/01/11 07:58:12;;;;;;;6.50;4.63;;;3.70;99.90;;;;;;10491257;28;20094;-84
2023/01/11 08:03:12;;;;;;;3.97;3.73;;;3.70;99.90;;;;;;10490004;28;20818;-84
2023/01/11 08:08:13;;;;;;;3.10;2.90;;;3.70;99.90;;;;;;10489775;28;20050;-81
2023/01/11 08:18:32;;;;;;;1.47;1.37;;;3.70;99.90;;;;;;10489964;28;20495;-81
2023/01/11 08:23:33;;;;;;;1.80;1.70;;;3.60;99.90;;;;;;10471619;28;20032;-81
2023/01/11 08:28:33;;;;;;;0.50;0.50;;;3.60;99.90;;;;;;10471113;28;20043;-81
2023/01/11 08:33:34;;;;;;;7.10;1.40;;;3.60;99.90;;;;;;10489805;28;20036;-81
2023/01/11 08:38:35;;;;;;;4.57;3.23;;;3.70;99.90;;;;;;10489507;28;20406;-84
2023/01/11 08:43:40;;;;;;;4.47;4.23;;;3.60;99.90;;;;;;10488838;28;20030;-81
2023/01/11 08:48:41;;;;;;;2.60;2.40;;;3.60;99.90;;;;;;10489481;28;20537;-81
2023/01/11 08:53:41;;;;;;;4.90;4.47;;;3.60;99.90;;;;;;10488502;28;20036;-81
2023/01/11 08:58:42;;;;;;;1.70;1.33;;;3.70;99.90;;;;;;10487389;28;20836;-81
2023/01/11 09:03:43;;;;;;;5.90;5.33;;;3.70;99.90;;;;;;10488405;28;20096;-83
2023/01/11 09:08:44;;;;;;;27.83;5.30;;;3.70;99.90;;;;;;10469970;28;20534;-80
2023/01/11 09:13:44;;;;;;;3.70;3.40;;;3.80;99.90;;;;;;10487462;28;20028;-81
2023/01/11 09:18:45;;;;;;;2.83;2.40;;;3.90;99.90;;;;;;10487564;28;20087;-81
2023/01/11 09:23:46;;;;;;;17.30;4.17;;;3.80;99.90;;;;;;10487517;28;20032;-81
2023/01/11 09:28:47;;;;;;;5.03;4.43;;;3.90;99.90;;;;;;10486265;28;20071;-83
2023/01/11 09:33:47;;;;;;;4.90;2.77;;;3.90;99.90;;;;;;10486845;28;20029;-85
2023/01/11 09:38:51;;;;;;;3.00;2.57;;;4.00;99.90;;;;;;10486360;28;20041;-81
2023/01/11 09:44:14;;;;;;;4.83;4.47;;;4.20;99.90;;;;;;10486416;28;20591;-83
2023/01/11 09:49:24;;;;;;;1.77;1.73;;;4.30;99.90;;;;;;10486305;28;20495;-85
2023/01/11 09:54:26;;;;;;;21.23;3.23;;;4.40;99.90;;;;;;10486889;28;20097;-82
2023/01/11 09:59:39;;;;;;;5.43;2.80;;;4.50;99.90;;;;;;10485333;28;20125;-85
2023/01/11 10:05:05;;;;;;;5.67;4.23;;;4.60;99.90;;;;;;10485396;28;20056;-81
2023/01/11 10:10:20;;;;;;;3.53;3.13;;;4.70;99.90;;;;;;10472175;28;20048;-83
2023/01/11 10:15:39;;;;;;;39.40;30.17;;;4.70;99.90;;;;;;10484742;28;20107;-82
2023/01/11 10:20:50;;;;;;;7.67;7.23;;;4.70;99.90;;;;;;10484225;28;20040;-83
2023/01/11 10:25:55;;;;;;;3.47;3.23;;;4.80;99.90;;;;;;10466797;28;20033;-80
2023/01/11 10:31:10;;;;;;;4.67;4.33;;;4.80;99.90;;;;;;10484750;28;20094;-85
2023/01/11 10:36:49;;;;;;;6.77;3.47;;;4.70;99.90;;;;;;10484755;28;20500;-81
2023/01/11 10:41:59;;;;;;;0.93;0.93;;;4.70;99.90;;;;;;10483738;28;20217;-80
2023/01/11 10:47:01;;;;;;;7.87;3.37;;;4.70;99.90;;;;;;10484112;28;20472;-81
2023/01/11 10:52:23;;;;;;;3.07;1.57;;;4.60;99.90;;;;;;10483830;28;20545;-80
2023/01/11 10:57:57;;;;;;;5.67;3.80;;;4.70;99.90;;;;;;10483907;28;20107;-81
2023/01/11 11:02:58;;;;;;;5.67;2.83;;;4.90;99.90;;;;;;10483316;28;20036;-84
2023/01/11 11:08:27;;;;;;;6.20;5.63;;;4.90;99.90;;;;;;10484179;28;20051;-85
2023/01/11 11:13:52;;;;;;;0.87;0.87;;;4.90;99.90;;;;;;10470967;28;20511;-80
2023/01/11 11:18:57;;;;;;;4.13;3.80;;;5.20;99.90;;;;;;10484182;28;20734;-80
2023/01/11 11:24:02;;;;;;;7.57;5.10;;;5.40;99.90;;;;;;10491376;28;20568;-82
2023/01/11 11:29:06;;;;;;;10.98;3.20;;;5.60;99.90;;;;;;10490978;28;20060;-81
2023/01/11 11:34:12;;;;;;;2.23;2.13;;;5.70;99.90;;;;;;10491200;28;20468;-82
2023/01/11 11:39:24;;;;;;;3.50;3.10;;;5.80;99.90;;;;;;10490702;28;20768;-83
2023/01/11 11:44:27;;;;;;;3.00;2.77;;;5.80;99.90;;;;;;10491621;28;20107;-81
2023/01/11 11:49:30;;;;;;;4.17;3.73;;;5.90;99.90;;;;;;10490973;28;20073;-82
2023/01/11 11:54:34;;;;;;;4.93;4.37;;;6.00;99.90;;;;;;10490713;28;20434;-81
2023/01/11 11:59:35;;;;;;;21.60;10.27;;;6.00;99.90;;;;;;10490105;28;20031;-81
2023/01/11 12:04:43;;;;;;;48.87;16.30;;;6.00;99.90;;;;;;10471428;28;20369;-81
2023/01/11 12:09:55;;;;;;;78.10;22.00;;;6.10;99.90;;;;;;10490483;28;20115;-83
2023/01/11 12:15:18;;;;;;;65.73;19.67;;;6.20;99.90;;;;;;10476990;28;20067;-81
2023/01/11 12:20:22;;;;;;;59.23;21.40;;;6.20;99.90;;;;;;10473699;28;20492;-82
2023/01/11 12:25:25;;;;;;;58.57;21.03;;;6.20;99.90;;;;;;10470943;28;20036;-82
2023/01/11 12:30:44;;;;;;;78.40;29.53;;;6.20;99.90;;;;;;10488883;28;20436;-80
2023/01/11 12:35:59;;;;;;;45.20;19.07;;;6.20;99.90;;;;;;10488627;28;20037;-84
2023/01/11 12:41:19;;;;;;;68.80;25.70;;;6.10;99.90;;;;;;10488496;28;20147;-83
2023/01/11 12:46:39;;;;;;;64.77;24.90;;;5.90;99.90;;;;;;10488564;28;20193;-85
2023/01/11 12:51:52;;;;;;;66.27;26.70;;;5.70;99.90;;;;;;10488549;28;20028;-80
2023/01/11 12:57:20;;;;;;;58.33;23.23;;;5.60;99.90;;;;;;10488075;28;20135;-80
2023/01/11 13:02:39;;;;;;;71.70;26.33;;;5.50;99.90;;;;;;10478311;28;20044;-82
2023/01/11 13:07:56;;;;;;;97.67;40.00;;;5.40;99.90;;;;;;10487270;28;20775;-84
2023/01/11 13:13:11;;;;;;;80.57;30.90;;;5.40;99.90;;;;;;10487669;28;20365;-84
2023/01/11 13:18:45;;;;;;;77.03;30.33;;;5.30;99.90;;;;;;10481001;28;20051;-80
2023/01/11 13:23:56;;;;;;;67.73;27.87;;;5.20;99.90;;;;;;10483542;28;20036;-82
2023/01/11 13:28:59;;;;;;;86.73;37.50;;;5.20;99.90;;;;;;10486764;28;20063;-83
2023/01/11 13:34:09;;;;;;;79.03;32.37;;;5.20;99.90;;;;;;10485961;28;20071;-82
2023/01/11 13:40:02;;;;;;;73.97;30.10;;;5.10;99.90;;;;;;10486173;28;20492;-80
2023/01/11 13:45:21;;;;;;;87.83;34.70;;;5.10;99.90;;;;;;10360227;28;20047;-80
2023/01/11 13:50:41;;;;;;;120.23;59.90;;;5.10;99.90;;;;;;10485355;28;20082;-81
2023/01/11 13:55:44;;;;;;;203.33;109.23;;;5.10;99.90;;;;;;10485122;28;20028;-80
2023/01/11 14:00:53;;;;;;;812.37;508.40;;;5.00;99.90;;;;;;10485735;28;20041;-81
2023/01/11 14:06:17;;;;;;;543.40;282.07;;;5.00;99.90;;;;;;10484922;28;20057;-80
2023/01/11 14:11:32;;;;;;;340.93;156.23;;;4.90;99.90;;;;;;10484896;28;20586;-80
2023/01/11 14:17:17;;;;;;;347.20;162.77;;;4.80;99.90;;;;;;10484411;28;20036;-81
2023/01/11 14:22:39;;;;;;;302.67;143.30;;;4.70;99.90;;;;;;10484675;28;20537;-80
2023/01/11 14:28:20;;;;;;;197.10;89.53;;;4.70;99.90;;;;;;10484088;28;20031;-84
2023/01/11 14:33:39;;;;;;;153.20;70.57;;;4.60;99.90;;;;;;10391912;28;20504;-80
2023/01/11 14:38:39;;;;;;;166.00;66.07;;;4.40;99.90;;;;;;10480173;28;20043;-85
2023/01/11 14:44:02;;;;;;;151.37;66.67;;;4.30;99.90;;;;;;10483668;28;20040;-82
2023/01/11 14:49:24;;;;;;;154.43;68.37;;;4.20;99.90;;;;;;10466697;28;20024;-81
2023/01/11 14:54:37;;;;;;;160.80;68.53;;;4.10;99.90;;;;;;10474657;28;20028;-81
2023/01/11 14:59:39;;;;;;;132.23;55.57;;;4.00;99.90;;;;;;10465178;28;20078;-83
2023/01/11 15:04:54;;;;;;;134.73;59.80;;;3.90;99.90;;;;;;10482308;28;20759;-81
2023/01/11 15:09:57;;;;;;;158.70;70.13;;;3.80;99.90;;;;;;10469617;28;20369;-81
2023/01/11 15:15:11;;;;;;;141.33;66.50;;;3.70;99.90;;;;;;10469341;28;20052;-81
2023/01/11 15:20:17;;;;;;;143.33;62.13;;;3.60;99.90;;;;;;10481545;28;20075;-81
2023/01/11 15:25:19;;;;;;;163.68;72.47;;;3.60;99.90;;;;;;10483384;28;20030;-82
2023/01/11 15:30:29;;;;;;;184.20;77.07;;;3.50;99.90;;;;;;10483422;28;20392;-81
2023/01/11 15:35:32;;;;;;;204.83;93.50;;;3.50;99.90;;;;;;10483011;28;20032;-81
2023/01/11 15:40:39;;;;;;;261.97;117.73;;;3.50;99.90;;;;;;10483258;28;20032;-82
2023/01/11 15:51:51;;;;;;;237.67;109.27;;;3.50;99.90;;;;;;10478119;28;20088;-82
2023/01/11 15:57:05;;;;;;;232.80;108.53;;;3.40;99.90;;;;;;10482375;28;20032;-83
2023/01/11 16:02:12;;;;;;;245.20;108.40;;;3.50;99.90;;;;;;10482518;28;20048;-83
2023/01/11 16:07:56;;;;;;;304.73;139.80;;;3.40;99.90;;;;;;10487354;28;20078;-81
2023/01/11 16:12:56;;;;;;;271.43;125.43;;;3.40;99.90;;;;;;10435566;28;20068;-81
2023/01/11 16:18:09;;;;;;;275.23;131.27;;;3.30;99.90;;;;;;10489085;28;20119;-83
2023/01/11 16:23:18;;;;;;;347.57;184.93;;;3.30;99.90;;;;;;10488580;28;20122;-85
2023/01/11 16:28:20;;;;;;;469.93;240.60;;;3.30;99.90;;;;;;10490392;28;20024;-83
2023/01/11 16:33:26;;;;;;;512.13;254.07;;;3.20;99.90;;;;;;10489723;28;20040;-83
2023/01/11 16:38:28;;;;;;;364.23;172.57;;;3.20;99.90;;;;;;10486179;28;20098;-88
2023/01/11 16:43:32;;;;;;;268.73;127.00;;;3.10;99.90;;;;;;10471053;28;20674;-84
2023/01/11 16:48:32;;;;;;;316.67;163.33;;;3.10;99.90;;;;;;10487207;28;20588;-84
2023/01/11 16:53:38;;;;;;;266.00;135.03;;;3.10;99.90;;;;;;10463613;28;20039;-85
2023/01/11 16:58:39;;;;;;;253.00;126.00;;;3.10;99.90;;;;;;10486534;28;20578;-85
2023/01/11 17:03:45;;;;;;;362.50;183.60;;;3.10;99.90;;;;;;10468575;28;20214;-84
2023/01/11 17:08:55;;;;;;;292.73;132.07;;;3.10;99.90;;;;;;10466782;28;20058;-84
2023/01/11 17:14:10;;;;;;;251.77;115.77;;;3.10;99.90;;;;;;10486227;28;20025;-82
2023/01/11 17:19:15;;;;;;;253.43;114.53;;;3.10;99.90;;;;;;10477828;28;20072;-83
2023/01/11 17:24:22;;;;;;;246.73;112.57;;;3.00;99.90;;;;;;10468155;28;20040;-85
2023/01/11 17:29:29;;;;;;;490.50;276.70;;;3.00;99.90;;;;;;10467540;28;20029;-85
2023/01/11 17:34:33;;;;;;;412.53;213.97;;;3.00;99.90;;;;;;10486107;28;20467;-83
2023/01/11 17:39:36;;;;;;;299.07;139.00;;;3.10;99.90;;;;;;10486552;28;20036;-83
2023/01/11 17:50:00;;;;;;;298.20;122.57;;;3.00;99.90;;;;;;10484630;28;20044;-78
2023/01/11 17:55:15;;;;;;;289.13;127.93;;;3.00;99.90;;;;;;10485603;28;20047;-78
2023/01/11 18:00:27;;;;;;;304.73;141.03;;;3.00;99.90;;;;;;10484454;28;20048;-79
2023/01/11 18:05:28;;;;;;;290.77;139.33;;;3.00;99.90;;;;;;10484841;28;20836;-79
2023/01/11 18:10:35;;;;;;;313.83;144.57;;;3.10;99.90;;;;;;10473460;28;20033;-80
2023/01/11 18:15:36;;;;;;;288.83;137.43;;;3.10;99.90;;;;;;10484943;28;20036;-80
2023/01/11 18:20:38;;;;;;;299.53;137.93;;;3.10;99.90;;;;;;10485328;28;20036;-81
2023/01/11 18:25:39;;;;;;;350.10;149.47;;;3.10;99.90;;;;;;10484618;28;20551;-81
2023/01/11 18:30:52;;;;;;;364.57;154.30;;;3.10;99.90;;;;;;10483650;28;20044;-80
2023/01/11 18:35:56;;;;;;;368.00;161.50;;;3.00;99.90;;;;;;10474212;28;20120;-79
2023/01/11 18:42:05;;;;;;;409.23;220.90;;;2.90;99.90;;;;;;10483888;28;20049;-80
2023/01/11 18:46:20;;;;;;;420.10;208.20;;;3.00;99.90;;;;;;10483017;28;20497;-81
2023/01/11 18:51:27;;;;;;;371.03;182.37;;;3.00;99.90;;;;;;10482471;28;20123;-81
2023/01/11 18:56:28;;;;;;;375.47;181.37;;;3.00;99.90;;;;;;10483507;28;20040;-82
2023/01/11 19:01:29;;;;;;;318.13;147.27;;;3.00;99.90;;;;;;10482094;28;20040;-81
2023/01/11 19:06:30;;;;;;;318.77;138.73;;;2.90;99.90;;;;;;10484135;28;20063;-82
2023/01/11 19:11:30;;;;;;;346.37;154.87;;;2.80;99.90;;;;;;10482380;28;20028;-80
2023/01/11 19:16:31;;;;;;;355.50;164.87;;;2.70;99.90;;;;;;10483277;28;20032;-80
2023/01/11 19:21:31;;;;;;;352.30;156.30;;;2.60;99.90;;;;;;10483397;28;20048;-80
2023/01/11 19:26:32;;;;;;;366.77;184.70;;;2.50;99.90;;;;;;10484287;28;20542;-80
2023/01/11 19:31:33;;;;;;;384.73;187.23;;;2.60;99.90;;;;;;10481369;28;20033;-81
2023/01/11 19:36:33;;;;;;;344.87;164.43;;;2.70;99.90;;;;;;10482876;28;20040;-81
2023/01/11 19:41:53;;;;;;;339.33;158.23;;;2.70;99.90;;;;;;10483087;28;20044;-82
2023/01/11 19:46:54;;;;;;;276.23;131.10;;;2.80;99.90;;;;;;10489528;28;20063;-81
2023/01/11 19:51:55;;;;;;;290.07;135.93;;;2.80;99.90;;;;;;10490700;28;20036;-81
2023/01/11 19:56:55;;;;;;;293.90;146.67;;;2.90;99.90;;;;;;10488497;28;20774;-84
2023/01/11 20:01:56;;;;;;;252.87;123.83;;;3.00;99.90;;;;;;10490104;28;20098;-82
2023/01/11 20:06:56;;;;;;;252.73;125.10;;;3.10;99.90;;;;;;10447773;28;20048;-81
2023/01/11 20:11:57;;;;;;;280.10;137.40;;;3.30;99.90;;;;;;10448781;28;20036;-79
2023/01/11 20:16:58;;;;;;;290.67;147.67;;;3.30;99.90;;;;;;10447900;28;20029;-80
2023/01/11 20:21:58;;;;;;;265.93;137.50;;;3.40;99.90;;;;;;10448475;28;20043;-80
2023/01/11 20:27:01;;;;;;;193.30;98.73;;;3.40;99.90;;;;;;10448735;28;20037;-80
2023/01/11 20:32:03;;;;;;;195.20;93.87;;;3.50;99.90;;;;;;10447562;28;20488;-80
2023/01/11 20:37:03;;;;;;;214.93;101.33;;;3.60;99.90;;;;;;10447056;28;20037;-81
2023/01/11 20:42:04;;;;;;;213.63;107.20;;;3.60;99.90;;;;;;10443139;28;20040;-82
2023/01/11 20:47:04;;;;;;;230.90;110.83;;;3.70;99.90;;;;;;10446423;28;20485;-80
2023/01/11 20:52:05;;;;;;;197.27;94.77;;;3.70;99.90;;;;;;10444388;28;20410;-82
2023/01/11 20:57:11;;;;;;;194.20;92.90;;;3.70;99.90;;;;;;10432544;28;20056;-79
2023/01/11 21:02:12;;;;;;;174.98;88.25;;;3.70;99.90;;;;;;10440722;28;20032;-82
2023/01/11 21:07:12;;;;;;;134.47;64.67;;;3.80;99.90;;;;;;10481467;28;20044;-82
2023/01/11 21:12:13;;;;;;;88.10;40.00;;;3.80;99.90;;;;;;10486404;28;20020;-79
2023/01/11 21:17:14;;;;;;;90.50;38.37;;;4.00;99.90;;;;;;10485867;28;20043;-79
2023/01/11 21:22:15;;;;;;;73.97;32.77;;;4.20;99.90;;;;;;10486234;28;20442;-82
2023/01/11 21:27:16;;;;;;;63.47;28.33;;;4.30;99.90;;;;;;10485510;28;20025;-79
2023/01/11 21:32:16;;;;;;;54.13;25.77;;;4.50;99.90;;;;;;10485760;28;20497;-79
2023/01/11 21:37:19;;;;;;;39.20;17.83;;;4.60;99.90;;;;;;10485777;28;20118;-79
2023/01/11 21:42:20;;;;;;;42.27;19.10;;;4.70;99.90;;;;;;10485505;28;20028;-78
2023/01/11 21:47:21;;;;;;;39.13;17.73;;;4.90;99.90;;;;;;10484947;28;20379;-79
2023/01/11 21:52:21;;;;;;;43.47;20.57;;;4.90;99.90;;;;;;10485385;28;20064;-78
2023/01/11 21:57:22;;;;;;;35.67;17.60;;;5.00;99.90;;;;;;10484735;28;20495;-79
2023/01/11 22:02:22;;;;;;;43.50;18.87;;;5.00;99.90;;;;;;10483687;28;20036;-78
2023/01/11 22:07:26;;;;;;;41.87;19.43;;;5.00;99.90;;;;;;10484130;28;20136;-78
2023/01/11 22:12:27;;;;;;;37.17;17.73;;;5.10;99.90;;;;;;10484389;28;20119;-78
2023/01/11 22:17:27;;;;;;;35.83;17.23;;;5.10;99.90;;;;;;10465189;28;20031;-80
2023/01/11 22:22:28;;;;;;;40.00;18.73;;;5.10;99.90;;;;;;10484557;28;20142;-78
2023/01/11 22:27:29;;;;;;;40.07;18.47;;;5.10;99.90;;;;;;10483377;28;20034;-79
2023/01/11 22:32:30;;;;;;;33.23;16.53;;;5.20;99.90;;;;;;10484069;28;20391;-78
2023/01/11 22:37:30;;;;;;;28.90;13.77;;;5.20;99.90;;;;;;10483443;28;20040;-79
2023/01/11 22:42:31;;;;;;;27.60;13.37;;;5.30;99.90;;;;;;10483275;28;20525;-79
2023/01/11 22:47:31;;;;;;;25.97;12.80;;;5.20;99.90;;;;;;10482825;28;20033;-80
2023/01/11 22:52:32;;;;;;;30.60;13.07;;;5.20;99.90;;;;;;10483153;28;20119;-79
2023/01/11 22:57:32;;;;;;;25.70;12.53;;;5.10;99.90;;;;;;10483019;28;20806;-79
2023/01/11 23:02:33;;;;;;;28.30;13.87;;;5.00;99.90;;;;;;10483163;28;20133;-79
2023/01/11 23:07:33;;;;;;;33.77;13.83;;;4.90;99.90;;;;;;10481803;28;20049;-79
2023/01/11 23:17:53;;;;;;;33.17;15.57;;;4.80;99.90;;;;;;10481486;28;20078;-79
2023/01/11 23:22:54;;;;;;;34.23;15.33;;;4.80;99.90;;;;;;10482794;28;20040;-81
2023/01/11 23:27:54;;;;;;;39.43;16.87;;;4.80;99.90;;;;;;10482085;28;20460;-79
2023/01/11 23:32:55;;;;;;;40.27;18.63;;;4.70;99.90;;;;;;10481253;28;20123;-79
2023/01/11 23:37:55;;;;;;;46.97;21.70;;;4.70;99.90;;;;;;10481885;28;20032;-80
2023/01/11 23:42:58;;;;;;;58.30;26.07;;;4.70;99.90;;;;;;10463788;28;20033;-79
2023/01/11 23:47:58;;;;;;;49.37;23.60;;;4.60;99.90;;;;;;10481627;28;20438;-81
2023/01/11 23:52:59;;;;;;;54.40;24.43;;;4.60;99.90;;;;;;10481977;28;20074;-80
2023/01/11 23:58:08;;;;;;;53.87;24.83;;;4.70;99.90;;;;;;10481551;28;20047;-81
